createdAt,value
2022-08-19T00:06:59.246Z,85.48
2022-08-19T00:35:39.470Z,85.94
2022-08-19T01:04:21.859Z,86.79
2022-08-19T01:33:10.028Z,87.95
2022-08-19T02:01:53.931Z,86.92
2022-08-19T02:30:37.648Z,86.14
2022-08-19T02:59:27.336Z,85.93
2022-08-19T03:28:16.198Z,86.11
2022-08-19T03:56:57.895Z,85.54
2022-08-19T04:25:35.309Z,86.42
2022-08-19T04:54:04.821Z,87.93
2022-08-19T05:22:50.950Z,86.33
2022-08-19T05:51:26.211Z,87.31
2022-08-19T06:19:43.216Z,86.18
2022-08-19T06:48:13.788Z,87.22
2022-08-19T07:16:43.579Z,86.79
2022-08-19T07:45:14.375Z,84.28
2022-08-19T08:13:43.900Z,79.16
2022-08-19T08:42:18.602Z,78.01
2022-08-19T09:10:45.438Z,75.32
2022-08-19T09:39:02.707Z,74.32
2022-08-19T10:07:37.066Z,71.05
2022-08-19T10:35:58.535Z,65.57
2022-08-19T11:04:11.496Z,63.81
2022-08-19T11:32:50.138Z,61.87
2022-08-19T12:32:58.476Z,61.52
2022-08-19T13:01:24.873Z,56.14
2022-08-19T13:30:04.634Z,51.43
2022-08-19T13:58:34.467Z,54.82
2022-08-19T14:27:06.381Z,59.19
2022-08-19T14:55:38.110Z,57
2022-08-19T15:24:15.035Z,52.5
2022-08-19T15:52:50.342Z,54.36
2022-08-19T16:20:59.855Z,54.4
2022-08-19T16:49:52.697Z,59.15
2022-08-19T17:17:52.893Z,58.15
2022-08-19T17:46:19.113Z,61.9
2022-08-19T18:14:37.813Z,63.26
2022-08-19T18:43:04.329Z,65.97
2022-08-19T19:11:31.016Z,67.25
2022-08-19T19:39:59.131Z,69.25
2022-08-19T20:08:19.764Z,71.17
